Challenge Plus — 9VJH7 — position and weather

sailwx.info

Track history (hours):
 
Tides and Currents Weather Stations Pressure Air Temp Water Temp Dewpoint Dewpoint Depression Visibility Wind Speed Wind Dir Waves Ship Positions

Challenge Plus

Last reported at 2014-Jul-09 05:31 UTC. Time now 2014-Jul-24 00:16 UTC.
Position N 25°25' E 120°33'.
Warning: this ship's position is 14 days out of date.

Length 179 m; draft 7.3 m.

Type: Ship. MMSI: 565267000.

Date/timePositionNaut miles runAvg speedWind from/ knotsBaromVisibWave heightAir tempDewpointWater temp
2014-Jul-09 05:31N 25°25' E 120°33'7012.9
2014-Jul-09 00:05N 24°37' E 119°37'1213.0
2014-Jul-08 23:08N 24°28' E 119°28'812.6
2014-Jul-08 22:29N 24°21' E 119°23'6312.5
2014-Jul-08 17:25N 23°47' E 118°24'25511.5
2014-Jul-07 19:18N 22°09' E 114°08'1 0.4
2014-Jul-07 17:30N 22°10' E 114°08'0 0.0
2014-Jul-07 16:18N 22°09' E 114°08'0 0.0
2014-Jul-07 12:30N 22°09' E 114°08'0 0.0
2014-Jul-07 11:30N 22°09' E 114°08'0 0.0
2014-Jul-07 10:18N 22°09' E 114°08'0 0.1
2014-Jul-07 09:30N 22°09' E 114°08'0 0.0
2014-Jul-07 05:08N 22°09' E 114°08'3 4.3
2014-Jul-07 04:26N 22°09' E 114°12'  
2014-Jul-04 20:32N 22°13' E 117°08'1111.2
2014-Jul-04 19:33N 22°14' E 117°20'1510.7
2014-Jul-04 18:11N 22°15' E 117°35'710.7
2014-Jul-04 17:32N 22°16' E 117°43'1110.8
2014-Jul-04 16:29N 22°17' E 117°55'2510.8
2014-Jul-04 14:09N 22°19' E 118°22'911.0
2014-Jul-04 13:18N 22°20' E 118°32'2112.0
2014-Jul-04 11:33N 22°21' E 118°55'3411.1
2014-Jul-04 08:32N 22°25' E 119°31'2110.6
2014-Jul-04 06:32N 22°29' E 119°53'1111.1
2014-Jul-04 05:33N 22°31' E 120°05'1110.8
2014-Jul-04 04:33N 22°33' E 120°16'4 3.0
2014-Jul-04 03:19N 22°32' E 120°20'0 0.0
2014-Jul-04 02:04N 22°32' E 120°20'0 0.0
2014-Jul-04 01:28N 22°32' E 120°20'0 0.0
2014-Jul-04 00:28N 22°32' E 120°20'0 0.0
2014-Jul-03 23:16N 22°32' E 120°20'0 0.0
2014-Jul-03 22:28N 22°32' E 120°20'0 0.0
2014-Jul-03 21:28N 22°32' E 120°20'0 0.0
2014-Jul-03 20:28N 22°32' E 120°20'0 0.0
2014-Jul-03 18:28N 22°32' E 120°20'0 0.0
2014-Jul-03 17:28N 22°32' E 120°20'0 0.0
2014-Jul-03 16:29N 22°32' E 120°20'0 0.0
2014-Jul-03 15:16N 22°32' E 120°20'0 0.0
2014-Jul-03 14:28N 22°32' E 120°20'0 0.0
2014-Jul-03 13:23N 22°32' E 120°20'0 0.0
2014-Jul-03 12:28N 22°32' E 120°20'0 0.0
2014-Jul-03 11:28N 22°32' E 120°20'0 0.0
2014-Jul-03 10:22N 22°32' E 120°20'0 0.0
2014-Jul-03 09:22N 22°32' E 120°20'0 0.0
2014-Jul-03 08:22N 22°32' E 120°20'0 0.0
2014-Jul-03 07:28N 22°32' E 120°20'0 0.0
2014-Jul-03 06:29N 22°32' E 120°20'2 2.4
2014-Jul-03 05:33N 22°33' E 120°18'4 3.5
2014-Jul-03 04:33N 22°33' E 120°14'0 0.0
2014-Jul-03 03:30N 22°33' E 120°14'0 0.0
2014-Jul-03 02:29N 22°33' E 120°14'0 0.1
2014-Jul-03 01:33N 22°33' E 120°14'0 0.1
2014-Jul-03 00:33N 22°33' E 120°14'0 0.1
2014-Jul-02 23:33N 22°33' E 120°14'0 0.0
2014-Jul-02 22:33N 22°33' E 120°14'0 0.0
2014-Jul-02 21:33N 22°33' E 120°14'0 0.1
2014-Jul-02 20:27N 22°33' E 120°14'0 0.0
2014-Jul-02 19:33N 22°33' E 120°14'0 0.0
2014-Jul-02 18:11N 22°33' E 120°14'0 0.0
2014-Jul-02 17:23N 22°33' E 120°14'0 0.0
2014-Jul-02 16:30N 22°33' E 120°14'0 0.1
2014-Jul-02 15:30N 22°33' E 120°14'0 0.0
2014-Jul-02 14:24N 22°33' E 120°14'0 0.0
2014-Jul-02 13:30N 22°33' E 120°14'0 0.0
2014-Jul-02 12:30N 22°33' E 120°14'0 0.0
2014-Jul-02 11:30N 22°33' E 120°14'0 0.1
2014-Jul-02 10:23N 22°33' E 120°14'0 0.1
2014-Jul-02 09:24N 22°33' E 120°14'0 0.1
2014-Jul-02 08:30N 22°33' E 120°14'0 0.1
2014-Jul-02 07:30N 22°34' E 120°14'0 0.1
2014-Jul-02 06:30N 22°33' E 120°14'0 0.1
2014-Jul-02 05:29N 22°33' E 120°14'0 0.1
2014-Jul-02 04:24N 22°33' E 120°14'0 0.0
2014-Jul-02 03:30N 22°33' E 120°14'0 0.0
2014-Jul-02 02:30N 22°33' E 120°14'0 0.1
2014-Jul-02 01:26N 22°33' E 120°14'0 0.0
2014-Jul-02 00:33N 22°33' E 120°14'0 0.0
2014-Jul-01 23:32N 22°33' E 120°14'0 0.1
2014-Jul-01 22:32N 22°33' E 120°14'0 0.0
2014-Jul-01 21:21N 22°33' E 120°14'0 0.0
2014-Jul-01 19:24N 22°33' E 120°14'0 0.1
2014-Jul-01 18:33N 22°33' E 120°14'0 0.1
2014-Jul-01 17:33N 22°33' E 120°14'0 0.0
2014-Jul-01 15:32N 22°33' E 120°14'0 0.0
2014-Jul-01 14:33N 22°33' E 120°14'0 0.3
2014-Jul-01 13:33N 22°33' E 120°14'7 6.7
2014-Jul-01 12:33N 22°26' E 120°13'1010.1
2014-Jul-01 11:33N 22°16' E 120°12'1110.1
2014-Jul-01 10:29N 22°06' E 120°11'1110.3
2014-Jul-01 09:27N 21°55' E 120°10'1010.8
2014-Jul-01 08:33N 21°46' E 120°09'1210.9
2014-Jul-01 07:27N 21°34' E 120°08'2411.5
2014-Jul-01 05:23N 21°10' E 120°05'  
Track history (hours):
 
Tides and Currents Weather Stations Pressure Air Temp Water Temp Dewpoint Dewpoint Depression Visibility Wind Speed Wind Dir Waves Ship Positions

Challenge Plus

Last reported at 2014-Jul-09 05:31 UTC. Time now 2014-Jul-24 00:16 UTC.
Position N 25°25' E 120°33'.
Warning: this ship's position is 14 days out of date.

Length 179 m; draft 7.3 m.

Type: Ship. MMSI: 565267000.

Date/timePositionNaut miles runAvg speedWind from/ knotsBaromVisibWave heightAir tempDewpointWater temp
2014-Jul-09 05:31N 25°25' E 120°33'7012.9
2014-Jul-09 00:05N 24°37' E 119°37'1213.0
2014-Jul-08 23:08N 24°28' E 119°28'812.6
2014-Jul-08 22:29N 24°21' E 119°23'6312.5
2014-Jul-08 17:25N 23°47' E 118°24'25511.5
2014-Jul-07 19:18N 22°09' E 114°08'1 0.4
2014-Jul-07 17:30N 22°10' E 114°08'0 0.0
2014-Jul-07 16:18N 22°09' E 114°08'0 0.0
2014-Jul-07 12:30N 22°09' E 114°08'0 0.0
2014-Jul-07 11:30N 22°09' E 114°08'0 0.0
2014-Jul-07 10:18N 22°09' E 114°08'0 0.1
2014-Jul-07 09:30N 22°09' E 114°08'0 0.0
2014-Jul-07 05:08N 22°09' E 114°08'3 4.3
2014-Jul-07 04:26N 22°09' E 114°12'  
2014-Jul-04 20:32N 22°13' E 117°08'1111.2
2014-Jul-04 19:33N 22°14' E 117°20'1510.7
2014-Jul-04 18:11N 22°15' E 117°35'710.7
2014-Jul-04 17:32N 22°16' E 117°43'1110.8
2014-Jul-04 16:29N 22°17' E 117°55'2510.8
2014-Jul-04 14:09N 22°19' E 118°22'911.0
2014-Jul-04 13:18N 22°20' E 118°32'2112.0
2014-Jul-04 11:33N 22°21' E 118°55'3411.1
2014-Jul-04 08:32N 22°25' E 119°31'2110.6
2014-Jul-04 06:32N 22°29' E 119°53'1111.1
2014-Jul-04 05:33N 22°31' E 120°05'1110.8
2014-Jul-04 04:33N 22°33' E 120°16'4 3.0
2014-Jul-04 03:19N 22°32' E 120°20'0 0.0
2014-Jul-04 02:04N 22°32' E 120°20'0 0.0
2014-Jul-04 01:28N 22°32' E 120°20'0 0.0
2014-Jul-04 00:28N 22°32' E 120°20'0 0.0
2014-Jul-03 23:16N 22°32' E 120°20'0 0.0
2014-Jul-03 22:28N 22°32' E 120°20'0 0.0
2014-Jul-03 21:28N 22°32' E 120°20'0 0.0
2014-Jul-03 20:28N 22°32' E 120°20'0 0.0
2014-Jul-03 18:28N 22°32' E 120°20'0 0.0
2014-Jul-03 17:28N 22°32' E 120°20'0 0.0
2014-Jul-03 16:29N 22°32' E 120°20'0 0.0
2014-Jul-03 15:16N 22°32' E 120°20'0 0.0
2014-Jul-03 14:28N 22°32' E 120°20'0 0.0
2014-Jul-03 13:23N 22°32' E 120°20'0 0.0
2014-Jul-03 12:28N 22°32' E 120°20'0 0.0
2014-Jul-03 11:28N 22°32' E 120°20'0 0.0
2014-Jul-03 10:22N 22°32' E 120°20'0 0.0
2014-Jul-03 09:22N 22°32' E 120°20'0 0.0
2014-Jul-03 08:22N 22°32' E 120°20'0 0.0
2014-Jul-03 07:28N 22°32' E 120°20'0 0.0
2014-Jul-03 06:29N 22°32' E 120°20'2 2.4
2014-Jul-03 05:33N 22°33' E 120°18'4 3.5
2014-Jul-03 04:33N 22°33' E 120°14'0 0.0
2014-Jul-03 03:30N 22°33' E 120°14'0 0.0
2014-Jul-03 02:29N 22°33' E 120°14'0 0.1
2014-Jul-03 01:33N 22°33' E 120°14'0 0.1
2014-Jul-03 00:33N 22°33' E 120°14'0 0.1
2014-Jul-02 23:33N 22°33' E 120°14'0 0.0
2014-Jul-02 22:33N 22°33' E 120°14'0 0.0
2014-Jul-02 21:33N 22°33' E 120°14'0 0.1
2014-Jul-02 20:27N 22°33' E 120°14'0 0.0
2014-Jul-02 19:33N 22°33' E 120°14'0 0.0
2014-Jul-02 18:11N 22°33' E 120°14'0 0.0
2014-Jul-02 17:23N 22°33' E 120°14'0 0.0
2014-Jul-02 16:30N 22°33' E 120°14'0 0.1
2014-Jul-02 15:30N 22°33' E 120°14'0 0.0
2014-Jul-02 14:24N 22°33' E 120°14'0 0.0
2014-Jul-02 13:30N 22°33' E 120°14'0 0.0
2014-Jul-02 12:30N 22°33' E 120°14'0 0.0
2014-Jul-02 11:30N 22°33' E 120°14'0 0.1
2014-Jul-02 10:23N 22°33' E 120°14'0 0.1
2014-Jul-02 09:24N 22°33' E 120°14'0 0.1
2014-Jul-02 08:30N 22°33' E 120°14'0 0.1
2014-Jul-02 07:30N 22°34' E 120°14'0 0.1
2014-Jul-02 06:30N 22°33' E 120°14'0 0.1
2014-Jul-02 05:29N 22°33' E 120°14'0 0.1
2014-Jul-02 04:24N 22°33' E 120°14'0 0.0
2014-Jul-02 03:30N 22°33' E 120°14'0 0.0
2014-Jul-02 02:30N 22°33' E 120°14'0 0.1
2014-Jul-02 01:26N 22°33' E 120°14'0 0.0
2014-Jul-02 00:33N 22°33' E 120°14'0 0.0
2014-Jul-01 23:32N 22°33' E 120°14'0 0.1
2014-Jul-01 22:32N 22°33' E 120°14'0 0.0
2014-Jul-01 21:21N 22°33' E 120°14'0 0.0
2014-Jul-01 19:24N 22°33' E 120°14'0 0.1
2014-Jul-01 18:33N 22°33' E 120°14'0 0.1
2014-Jul-01 17:33N 22°33' E 120°14'0 0.0
2014-Jul-01 15:32N 22°33' E 120°14'0 0.0
2014-Jul-01 14:33N 22°33' E 120°14'0 0.3
2014-Jul-01 13:33N 22°33' E 120°14'7 6.7
2014-Jul-01 12:33N 22°26' E 120°13'1010.1
2014-Jul-01 11:33N 22°16' E 120°12'1110.1
2014-Jul-01 10:29N 22°06' E 120°11'1110.3
2014-Jul-01 09:27N 21°55' E 120°10'1010.8
2014-Jul-01 08:33N 21°46' E 120°09'1210.9
2014-Jul-01 07:27N 21°34' E 120°08'2411.5
2014-Jul-01 05:23N 21°10' E 120°05'  

Dump ship's entire track history